Date,TemperatureHighF,TemperatureAvgF,TemperatureLowF,DewpointHighF,DewpointAvgF,DewpointLowF,HumidityHigh,HumidityAvg,HumidityLow,PressureMaxIn,PressureMinIn,WindSpeedMaxMPH,WindSpeedAvgMPH,GustSpeedMaxMPH,PrecipitationSumIn
2013-4-1,42,30,15,30,21,14,100,72,42,0.00,40.00,4,2,11,0.12
2013-4-2,43,25,0,17,11,-3,94,60,30,0.00,40.00,5,2,11,0.04
2013-4-3,37,26,15,11,5,-5,72,44,25,0.00,40.00,9,5,16,0.01
2013-4-4,33,20,6,-2,-4,-8,62,36,16,0.00,40.00,9,5,19,0.00
2013-4-5,22,14,4,-2,-8,-12,51,36,26,0.00,40.00,10,6,20,0.00
2013-4-6,27,8,-17,-2,-9,-22,81,49,24,0.00,40.00,5,2,10,0.00
2013-4-7,14,7,-6,6,1,-9,88,74,54,0.00,40.00,3,1,8,0.00
2013-4-8,18,6,-21,8,0,-26,90,76,60,0.00,40.00,3,1,8,0.00
2013-4-9,18,11,7,9,6,4,91,83,64,0.00,40.00,3,1,10,0.00
2013-4-10,22,9,-13,4,-2,-17,83,63,32,0.00,40.00,4,2,13,0.00
2013-4-11,22,7,-22,-2,-8,-27,83,53,33,0.00,40.00,2,1,6,0.00
2013-4-12,31,6,-13,3,-6,-17,87,62,29,0.00,40.00,3,1,6,0.01
2013-4-13,33,13,-19,2,-5,-24,84,50,24,0.00,40.00,3,1,8,0.01
2013-4-14,34,19,-4,17,6,-8,87,62,37,0.00,40.00,3,2,8,0.00
2013-4-15,35,24,3,16,5,-1,93,49,23,0.00,40.00,7,4,14,0.00
2013-4-16,33,21,-3,8,-2,-21,88,43,12,0.00,40.00,5,2,11,0.02
2013-4-17,33,26,-3,9,-1,-42,63,32,12,0.00,40.00,8,4,20,0.02
2013-4-18,35,24,8,6,3,-1,70,41,27,0.00,40.00,9,5,21,0.00
2013-4-19,46,29,-1,13,6,-8,80,41,24,0.00,40.00,3,2,9,0.00
2013-4-20,48,32,8,14,8,2,75,39,20,0.00,40.00,6,2,12,0.00
2013-4-21,50,33,7,14,12,3,91,47,22,0.00,40.00,3,1,8,0.00
2013-4-22,53,34,10,16,12,6,84,46,20,0.00,40.00,4,1,7,0.00
2013-4-23,56,37,13,21,15,9,85,46,20,0.00,40.00,4,1,14,0.00
2013-4-24,40,35,28,33,26,20,97,72,51,0.00,40.00,5,2,17,0.07
2013-4-25,39,29,16,22,2,-8,88,34,20,0.00,40.00,5,3,16,0.03
2013-4-26,38,24,8,23,10,1,84,57,34,0.00,40.00,4,2,9,0.00
2013-4-27,33,26,13,22,5,-10,94,48,18,0.00,40.00,8,4,18,0.00
2013-4-28,42,25,-5,16,2,-11,75,40,22,0.00,40.00,4,2,11,0.00
2013-4-29,36,28,13,28,19,9,96,68,54,0.00,40.00,4,2,12,0.00
2013-4-30,44,35,28,30,27,22,97,75,48,0.00,40.00,6,2,11,0.20